Terminal Aerodrome Forecast
Issued by NWS

Home | Current Version | Previous Version | Text Only | Print | Product List | Glossary On
Versions: 1 2 3 4 5 6 7 8 9 10 11 12 13
290
FTUS42 KTBW 130541
TAFPIE
TAF
KPIE 130541Z 1306/1406 24006KT P6SM FEW025
     FM130800 27006KT P6SM SCT025
      TEMPO 1308/1311 5SM BR BKN025
     FM131100 32008KT P6SM FEW025
     FM131400 35011G17KT P6SM FEW040
     FM140000 01010KT P6SM SKC=

USA.gov is the U.S. government's official web portal to all federal, state and local government web resources and services.